KR-0462 weather

Hanjin Family Town Apartments Heliport
Busan, Busan Gwang'yeogsi, South Korea

Public forecast

Using degrees Celsius for public forecast. Weather courtesy of forecast.io.

METAR (pilot weather report)

Closest report is Gimhae International Airport, 9.2 nm (17.1 km) WNW. Retrieved 2019/07/17 03:00 UTC (36 minutes ago):

RKPK 170300Z 09007KT 9999 SCT030 SCT200 27/19 Q1012

TAF (pilot weather forecast)

Forecast is more than 12 hours old.

Closest forecast is Gimhae International Airport, 9.2 nm (17.1 km) WNW. Retrieved 2019/07/16 00:00 UTC (1 day ago):

TAF RKPK 162300Z 1700/1806 06006KT 9999 SCT030 BKN200 TX30/1705Z TN23/1718Z BECMG 1705/1706 15010KT BECMG 1715/1716 4800 -RA BR BKN030 OVC100 BECMG 1723/1724 1600 RA BR BKN010 OVC020